sensor_id;sensor_type;location;lat;lon;timestamp;temperature;humidity
72206;DHT22;60111;48.286;7.812;2023-01-30T00:00:22;-1.80;76.90
72206;DHT22;60111;48.286;7.812;2023-01-30T00:02:54;-1.80;77.20
72206;DHT22;60111;48.286;7.812;2023-01-30T00:05:27;-1.80;77.40
72206;DHT22;60111;48.286;7.812;2023-01-30T00:07:59;-1.70;77.40
72206;DHT22;60111;48.286;7.812;2023-01-30T00:10:32;-1.70;77.40
72206;DHT22;60111;48.286;7.812;2023-01-30T00:13:05;-1.60;77.40
72206;DHT22;60111;48.286;7.812;2023-01-30T00:15:37;-1.60;77.30
72206;DHT22;60111;48.286;7.812;2023-01-30T00:18:10;-1.60;77.20
72206;DHT22;60111;48.286;7.812;2023-01-30T00:20:43;-1.50;77.20
72206;DHT22;60111;48.286;7.812;2023-01-30T00:23:15;-1.50;76.90
72206;DHT22;60111;48.286;7.812;2023-01-30T00:25:48;-1.60;76.60
72206;DHT22;60111;48.286;7.812;2023-01-30T00:28:21;-1.70;76.90
72206;DHT22;60111;48.286;7.812;2023-01-30T00:30:54;-1.60;77.20
72206;DHT22;60111;48.286;7.812;2023-01-30T00:33:28;-1.70;77.50
72206;DHT22;60111;48.286;7.812;2023-01-30T00:36:01;-1.70;77.60
72206;DHT22;60111;48.286;7.812;2023-01-30T00:38:33;-1.60;77.50
72206;DHT22;60111;48.286;7.812;2023-01-30T00:41:06;-1.60;77.40
72206;DHT22;60111;48.286;7.812;2023-01-30T00:43:40;-1.60;77.30
72206;DHT22;60111;48.286;7.812;2023-01-30T00:46:33;-1.70;77.60
72206;DHT22;60111;48.286;7.812;2023-01-30T00:49:23;-1.70;77.80
72206;DHT22;60111;48.286;7.812;2023-01-30T00:51:56;-1.70;78.20
72206;DHT22;60111;48.286;7.812;2023-01-30T00:54:29;-1.60;78.20
72206;DHT22;60111;48.286;7.812;2023-01-30T00:57:02;-1.50;78.10
72206;DHT22;60111;48.286;7.812;2023-01-30T00:59:34;-1.50;77.80
72206;DHT22;60111;48.286;7.812;2023-01-30T01:02:07;-1.40;77.50
72206;DHT22;60111;48.286;7.812;2023-01-30T01:04:39;-1.30;77.20
72206;DHT22;60111;48.286;7.812;2023-01-30T01:07:15;-1.30;76.90
72206;DHT22;60111;48.286;7.812;2023-01-30T01:09:47;-1.20;76.70
72206;DHT22;60111;48.286;7.812;2023-01-30T01:12:20;-1.20;76.50
72206;DHT22;60111;48.286;7.812;2023-01-30T01:14:52;-1.10;76.60
72206;DHT22;60111;48.286;7.812;2023-01-30T01:17:25;-1.00;76.60
72206;DHT22;60111;48.286;7.812;2023-01-30T01:19:57;-0.90;76.30
72206;DHT22;60111;48.286;7.812;2023-01-30T01:22:30;-0.80;75.60
72206;DHT22;60111;48.286;7.812;2023-01-30T01:25:03;-0.80;75.10
72206;DHT22;60111;48.286;7.812;2023-01-30T01:27:37;-0.80;75.00
72206;DHT22;60111;48.286;7.812;2023-01-30T01:30:10;-0.90;74.90
72206;DHT22;60111;48.286;7.812;2023-01-30T01:32:44;-1.00;75.20
72206;DHT22;60111;48.286;7.812;2023-01-30T01:35:16;-0.90;75.60
72206;DHT22;60111;48.286;7.812;2023-01-30T01:37:52;-0.90;75.80
72206;DHT22;60111;48.286;7.812;2023-01-30T01:40:25;-0.90;75.60
72206;DHT22;60111;48.286;7.812;2023-01-30T01:43:24;-0.90;75.60
72206;DHT22;60111;48.286;7.812;2023-01-30T01:45:57;-1.00;75.80
72206;DHT22;60111;48.286;7.812;2023-01-30T01:48:33;-1.00;75.60
72206;DHT22;60111;48.286;7.812;2023-01-30T01:51:08;-1.10;75.80
72206;DHT22;60111;48.286;7.812;2023-01-30T01:53:45;-1.10;75.70
72206;DHT22;60111;48.286;7.812;2023-01-30T01:56:19;-1.30;76.40
72206;DHT22;60111;48.286;7.812;2023-01-30T01:58:54;-1.40;76.60
72206;DHT22;60111;48.286;7.812;2023-01-30T02:01:28;-1.50;77.20
72206;DHT22;60111;48.286;7.812;2023-01-30T02:04:03;-1.50;77.60
72206;DHT22;60111;48.286;7.812;2023-01-30T02:06:40;-1.40;77.30
72206;DHT22;60111;48.286;7.812;2023-01-30T02:09:13;-1.30;77.50
72206;DHT22;60111;48.286;7.812;2023-01-30T02:11:48;-1.30;77.50
72206;DHT22;60111;48.286;7.812;2023-01-30T02:14:22;-1.30;77.80
72206;DHT22;60111;48.286;7.812;2023-01-30T02:16:54;-1.30;77.50
72206;DHT22;60111;48.286;7.812;2023-01-30T02:19:52;-1.30;77.50
72206;DHT22;60111;48.286;7.812;2023-01-30T02:22:35;-1.30;77.60
72206;DHT22;60111;48.286;7.812;2023-01-30T02:33:35;-1.30;78.20
72206;DHT22;60111;48.286;7.812;2023-01-30T02:35:57;-1.20;78.10
72206;DHT22;60111;48.286;7.812;2023-01-30T02:39:15;-1.30;77.80
72206;DHT22;60111;48.286;7.812;2023-01-30T02:44:03;-1.30;77.80
72206;DHT22;60111;48.286;7.812;2023-01-30T02:46:51;-1.30;77.90
72206;DHT22;60111;48.286;7.812;2023-01-30T02:49:28;-1.40;78.30
72206;DHT22;60111;48.286;7.812;2023-01-30T02:52:00;-1.40;78.40
72206;DHT22;60111;48.286;7.812;2023-01-30T02:54:33;-1.50;78.70
72206;DHT22;60111;48.286;7.812;2023-01-30T02:57:26;-1.30;78.50
72206;DHT22;60111;48.286;7.812;2023-01-30T02:59:52;-1.30;78.30
72206;DHT22;60111;48.286;7.812;2023-01-30T03:05:12;-1.40;78.40
72206;DHT22;60111;48.286;7.812;2023-01-30T03:10:42;-1.40;78.30
72206;DHT22;60111;48.286;7.812;2023-01-30T03:13:51;-1.50;78.60
72206;DHT22;60111;48.286;7.812;2023-01-30T03:16:35;-1.50;78.90
72206;DHT22;60111;48.286;7.812;2023-01-30T03:19:12;-1.40;78.90
72206;DHT22;60111;48.286;7.812;2023-01-30T03:21:45;-1.40;78.90
72206;DHT22;60111;48.286;7.812;2023-01-30T03:24:18;-1.30;78.80
72206;DHT22;60111;48.286;7.812;2023-01-30T03:26:56;-1.40;79.00
72206;DHT22;60111;48.286;7.812;2023-01-30T03:29:29;-1.30;79.00
72206;DHT22;60111;48.286;7.812;2023-01-30T03:32:01;-1.30;78.20
72206;DHT22;60111;48.286;7.812;2023-01-30T03:34:34;-1.20;78.20
72206;DHT22;60111;48.286;7.812;2023-01-30T03:37:06;-1.10;77.40
72206;DHT22;60111;48.286;7.812;2023-01-30T03:39:40;-1.10;77.20
72206;DHT22;60111;48.286;7.812;2023-01-30T03:42:12;-1.10;77.10
72206;DHT22;60111;48.286;7.812;2023-01-30T03:44:45;-1.20;77.60
72206;DHT22;60111;48.286;7.812;2023-01-30T03:47:17;-1.10;77.60
72206;DHT22;60111;48.286;7.812;2023-01-30T03:49:50;-1.10;77.70
72206;DHT22;60111;48.286;7.812;2023-01-30T03:52:23;-1.10;77.70
72206;DHT22;60111;48.286;7.812;2023-01-30T03:54:55;-1.00;77.70
72206;DHT22;60111;48.286;7.812;2023-01-30T03:57:28;-1.10;77.90
72206;DHT22;60111;48.286;7.812;2023-01-30T04:00:01;-1.10;78.00
72206;DHT22;60111;48.286;7.812;2023-01-30T04:02:35;-1.00;77.90
72206;DHT22;60111;48.286;7.812;2023-01-30T04:05:09;-1.00;77.50
72206;DHT22;60111;48.286;7.812;2023-01-30T04:07:41;-0.90;77.60
72206;DHT22;60111;48.286;7.812;2023-01-30T04:10:14;-0.80;77.50
72206;DHT22;60111;48.286;7.812;2023-01-30T04:12:49;-0.80;77.20
72206;DHT22;60111;48.286;7.812;2023-01-30T04:15:21;-0.70;76.90
72206;DHT22;60111;48.286;7.812;2023-01-30T04:17:54;-0.60;76.70
72206;DHT22;60111;48.286;7.812;2023-01-30T04:20:26;-0.60;76.60
72206;DHT22;60111;48.286;7.812;2023-01-30T04:22:59;-0.50;76.30
72206;DHT22;60111;48.286;7.812;2023-01-30T04:25:32;-0.60;76.50
72206;DHT22;60111;48.286;7.812;2023-01-30T04:28:04;-0.60;76.30
72206;DHT22;60111;48.286;7.812;2023-01-30T04:30:37;-0.50;76.30
72206;DHT22;60111;48.286;7.812;2023-01-30T04:33:10;-0.50;76.10
72206;DHT22;60111;48.286;7.812;2023-01-30T04:35:53;-0.50;76.10
72206;DHT22;60111;48.286;7.812;2023-01-30T04:38:27;-0.50;76.10
72206;DHT22;60111;48.286;7.812;2023-01-30T04:41:01;-0.40;75.70
72206;DHT22;60111;48.286;7.812;2023-01-30T04:43:33;-0.40;75.50
72206;DHT22;60111;48.286;7.812;2023-01-30T04:46:06;-0.40;75.40
72206;DHT22;60111;48.286;7.812;2023-01-30T04:48:38;-0.40;75.70
72206;DHT22;60111;48.286;7.812;2023-01-30T04:51:11;-0.40;75.50
72206;DHT22;60111;48.286;7.812;2023-01-30T04:53:44;-0.40;75.50
72206;DHT22;60111;48.286;7.812;2023-01-30T04:56:17;-0.30;75.10
72206;DHT22;60111;48.286;7.812;2023-01-30T04:58:49;-0.30;75.00
72206;DHT22;60111;48.286;7.812;2023-01-30T05:01:25;-0.30;75.30
72206;DHT22;60111;48.286;7.812;2023-01-30T05:03:58;-0.30;75.10
72206;DHT22;60111;48.286;7.812;2023-01-30T05:06:32;-0.30;74.90
72206;DHT22;60111;48.286;7.812;2023-01-30T05:09:05;-0.30;75.10
72206;DHT22;60111;48.286;7.812;2023-01-30T05:11:38;-0.40;75.40
72206;DHT22;60111;48.286;7.812;2023-01-30T05:14:10;-0.30;75.50
72206;DHT22;60111;48.286;7.812;2023-01-30T05:16:43;-0.30;75.60
72206;DHT22;60111;48.286;7.812;2023-01-30T05:19:15;-0.20;75.50
72206;DHT22;60111;48.286;7.812;2023-01-30T05:21:48;-0.20;75.40
72206;DHT22;60111;48.286;7.812;2023-01-30T05:24:21;-0.10;75.60
72206;DHT22;60111;48.286;7.812;2023-01-30T05:26:53;-0.20;75.60
72206;DHT22;60111;48.286;7.812;2023-01-30T05:29:26;-0.20;75.40
72206;DHT22;60111;48.286;7.812;2023-01-30T05:31:59;-0.20;75.50
72206;DHT22;60111;48.286;7.812;2023-01-30T05:34:31;-0.20;75.60
72206;DHT22;60111;48.286;7.812;2023-01-30T05:37:04;-0.20;75.80
72206;DHT22;60111;48.286;7.812;2023-01-30T05:39:36;-0.20;76.10
72206;DHT22;60111;48.286;7.812;2023-01-30T05:42:09;-0.30;76.20
72206;DHT22;60111;48.286;7.812;2023-01-30T05:44:42;-0.20;75.90
72206;DHT22;60111;48.286;7.812;2023-01-30T05:47:14;-0.20;75.90
72206;DHT22;60111;48.286;7.812;2023-01-30T05:49:47;-0.20;75.90
72206;DHT22;60111;48.286;7.812;2023-01-30T05:52:19;-0.20;76.10
72206;DHT22;60111;48.286;7.812;2023-01-30T05:54:52;-0.20;76.00
72206;DHT22;60111;48.286;7.812;2023-01-30T05:57:24;-0.20;75.90
72206;DHT22;60111;48.286;7.812;2023-01-30T05:59:57;-0.10;75.50
72206;DHT22;60111;48.286;7.812;2023-01-30T06:02:29;-0.20;75.50
72206;DHT22;60111;48.286;7.812;2023-01-30T06:05:02;-0.10;75.60
72206;DHT22;60111;48.286;7.812;2023-01-30T06:07:35;-0.10;75.10
72206;DHT22;60111;48.286;7.812;2023-01-30T06:10:08;0.00;75.10
72206;DHT22;60111;48.286;7.812;2023-01-30T06:12:41;0.00;75.00
72206;DHT22;60111;48.286;7.812;2023-01-30T06:15:14;0.10;74.70
72206;DHT22;60111;48.286;7.812;2023-01-30T06:17:46;0.10;74.50
72206;DHT22;60111;48.286;7.812;2023-01-30T06:20:19;0.10;74.30
72206;DHT22;60111;48.286;7.812;2023-01-30T06:22:52;0.10;74.20
72206;DHT22;60111;48.286;7.812;2023-01-30T06:25:24;0.20;73.90
72206;DHT22;60111;48.286;7.812;2023-01-30T06:27:57;0.20;73.70
72206;DHT22;60111;48.286;7.812;2023-01-30T06:30:30;0.20;73.70
72206;DHT22;60111;48.286;7.812;2023-01-30T06:33:03;0.30;73.10
72206;DHT22;60111;48.286;7.812;2023-01-30T06:35:39;0.30;73.00
72206;DHT22;60111;48.286;7.812;2023-01-30T06:38:12;0.30;72.90
72206;DHT22;60111;48.286;7.812;2023-01-30T06:40:47;0.30;72.90
72206;DHT22;60111;48.286;7.812;2023-01-30T06:43:20;0.30;72.60
72206;DHT22;60111;48.286;7.812;2023-01-30T06:45:52;0.30;72.50
72206;DHT22;60111;48.286;7.812;2023-01-30T06:48:25;0.30;72.80
72206;DHT22;60111;48.286;7.812;2023-01-30T06:50:58;0.40;72.60
72206;DHT22;60111;48.286;7.812;2023-01-30T06:53:30;0.40;72.40
72206;DHT22;60111;48.286;7.812;2023-01-30T06:56:03;0.30;72.20
72206;DHT22;60111;48.286;7.812;2023-01-30T06:58:36;0.30;72.40
72206;DHT22;60111;48.286;7.812;2023-01-30T07:01:08;0.40;71.80
72206;DHT22;60111;48.286;7.812;2023-01-30T07:03:41;0.50;71.70
72206;DHT22;60111;48.286;7.812;2023-01-30T07:06:13;0.40;71.90
72206;DHT22;60111;48.286;7.812;2023-01-30T07:08:46;0.50;71.30
72206;DHT22;60111;48.286;7.812;2023-01-30T07:11:18;0.40;71.30
72206;DHT22;60111;48.286;7.812;2023-01-30T07:13:51;0.40;71.60
72206;DHT22;60111;48.286;7.812;2023-01-30T07:16:24;0.40;71.50
72206;DHT22;60111;48.286;7.812;2023-01-30T07:18:58;0.30;71.70
72206;DHT22;60111;48.286;7.812;2023-01-30T07:21:30;0.30;72.00
72206;DHT22;60111;48.286;7.812;2023-01-30T07:24:03;0.30;71.80
72206;DHT22;60111;48.286;7.812;2023-01-30T07:26:36;0.30;71.60
72206;DHT22;60111;48.286;7.812;2023-01-30T07:29:09;0.40;71.40
72206;DHT22;60111;48.286;7.812;2023-01-30T07:31:41;0.50;71.30
72206;DHT22;60111;48.286;7.812;2023-01-30T07:34:14;0.50;71.40
72206;DHT22;60111;48.286;7.812;2023-01-30T07:36:46;0.50;71.10
72206;DHT22;60111;48.286;7.812;2023-01-30T07:39:19;0.50;71.30
72206;DHT22;60111;48.286;7.812;2023-01-30T07:41:52;0.50;71.70
72206;DHT22;60111;48.286;7.812;2023-01-30T07:44:24;0.50;71.70
72206;DHT22;60111;48.286;7.812;2023-01-30T07:46:57;0.50;72.00
72206;DHT22;60111;48.286;7.812;2023-01-30T07:49:29;0.60;71.70
72206;DHT22;60111;48.286;7.812;2023-01-30T07:52:02;0.60;71.80
72206;DHT22;60111;48.286;7.812;2023-01-30T07:54:34;0.70;71.70
72206;DHT22;60111;48.286;7.812;2023-01-30T07:57:07;0.70;70.90
72206;DHT22;60111;48.286;7.812;2023-01-30T07:59:40;0.80;71.30
72206;DHT22;60111;48.286;7.812;2023-01-30T08:02:13;0.80;71.40
72206;DHT22;60111;48.286;7.812;2023-01-30T08:04:45;0.70;71.20
72206;DHT22;60111;48.286;7.812;2023-01-30T08:07:18;0.80;71.10
72206;DHT22;60111;48.286;7.812;2023-01-30T08:09:51;0.80;71.40
72206;DHT22;60111;48.286;7.812;2023-01-30T08:12:24;0.80;71.10
72206;DHT22;60111;48.286;7.812;2023-01-30T08:14:56;0.90;70.70
72206;DHT22;60111;48.286;7.812;2023-01-30T08:17:29;0.80;70.80
72206;DHT22;60111;48.286;7.812;2023-01-30T08:20:02;0.90;70.90
72206;DHT22;60111;48.286;7.812;2023-01-30T08:22:35;0.80;71.10
72206;DHT22;60111;48.286;7.812;2023-01-30T08:25:07;0.80;71.40
72206;DHT22;60111;48.286;7.812;2023-01-30T08:27:40;0.80;71.10
72206;DHT22;60111;48.286;7.812;2023-01-30T08:30:13;0.80;71.50
72206;DHT22;60111;48.286;7.812;2023-01-30T08:32:45;0.80;71.50
72206;DHT22;60111;48.286;7.812;2023-01-30T08:35:18;0.80;71.90
72206;DHT22;60111;48.286;7.812;2023-01-30T08:37:51;0.90;71.60
72206;DHT22;60111;48.286;7.812;2023-01-30T08:40:24;0.90;71.90
72206;DHT22;60111;48.286;7.812;2023-01-30T08:42:56;0.90;71.90
72206;DHT22;60111;48.286;7.812;2023-01-30T08:45:29;0.90;71.80
72206;DHT22;60111;48.286;7.812;2023-01-30T08:48:04;0.90;71.70
72206;DHT22;60111;48.286;7.812;2023-01-30T08:50:37;1.00;71.40
72206;DHT22;60111;48.286;7.812;2023-01-30T08:53:10;1.00;71.40
72206;DHT22;60111;48.286;7.812;2023-01-30T08:56:01;1.00;71.30
72206;DHT22;60111;48.286;7.812;2023-01-30T08:58:34;1.00;71.70
72206;DHT22;60111;48.286;7.812;2023-01-30T09:01:07;1.00;71.70
72206;DHT22;60111;48.286;7.812;2023-01-30T09:03:40;1.10;71.00
72206;DHT22;60111;48.286;7.812;2023-01-30T09:06:13;1.10;71.10
72206;DHT22;60111;48.286;7.812;2023-01-30T09:08:45;1.10;70.40
72206;DHT22;60111;48.286;7.812;2023-01-30T09:11:18;1.10;70.80
72206;DHT22;60111;48.286;7.812;2023-01-30T09:13:51;1.20;70.30
72206;DHT22;60111;48.286;7.812;2023-01-30T09:16:24;1.20;70.30
72206;DHT22;60111;48.286;7.812;2023-01-30T09:18:56;1.20;70.60
72206;DHT22;60111;48.286;7.812;2023-01-30T09:21:30;1.10;70.30
72206;DHT22;60111;48.286;7.812;2023-01-30T09:24:03;1.20;70.60
72206;DHT22;60111;48.286;7.812;2023-01-30T09:26:36;1.20;70.60
72206;DHT22;60111;48.286;7.812;2023-01-30T09:29:11;1.20;70.60
72206;DHT22;60111;48.286;7.812;2023-01-30T09:31:43;1.20;70.20
72206;DHT22;60111;48.286;7.812;2023-01-30T09:34:16;1.30;70.50
72206;DHT22;60111;48.286;7.812;2023-01-30T09:36:49;1.20;70.80
72206;DHT22;60111;48.286;7.812;2023-01-30T09:39:21;1.40;70.30
72206;DHT22;60111;48.286;7.812;2023-01-30T09:47:47;1.30;70.10
72206;DHT22;60111;48.286;7.812;2023-01-30T09:56:05;1.60;69.40
72206;DHT22;60111;48.286;7.812;2023-01-30T09:58:48;1.70;68.40
72206;DHT22;60111;48.286;7.812;2023-01-30T10:01:32;1.70;68.50
72206;DHT22;60111;48.286;7.812;2023-01-30T10:04:23;1.70;68.40
72206;DHT22;60111;48.286;7.812;2023-01-30T10:09:55;1.70;68.50
72206;DHT22;60111;48.286;7.812;2023-01-30T10:12:32;1.60;68.60
72206;DHT22;60111;48.286;7.812;2023-01-30T10:21:17;1.70;68.90
72206;DHT22;60111;48.286;7.812;2023-01-30T10:26:31;1.70;68.60
72206;DHT22;60111;48.286;7.812;2023-01-30T10:29:19;1.70;69.30
72206;DHT22;60111;48.286;7.812;2023-01-30T10:31:58;1.80;68.50
72206;DHT22;60111;48.286;7.812;2023-01-30T10:34:31;1.90;68.10
72206;DHT22;60111;48.286;7.812;2023-01-30T10:37:25;1.80;68.40
72206;DHT22;60111;48.286;7.812;2023-01-30T10:40:03;1.90;68.00
72206;DHT22;60111;48.286;7.812;2023-01-30T10:42:51;1.80;67.90
72206;DHT22;60111;48.286;7.812;2023-01-30T10:45:20;1.80;68.50
72206;DHT22;60111;48.286;7.812;2023-01-30T10:48:16;1.90;67.60
72206;DHT22;60111;48.286;7.812;2023-01-30T10:50:57;1.90;68.30
72206;DHT22;60111;48.286;7.812;2023-01-30T10:54:03;1.90;68.00
72206;DHT22;60111;48.286;7.812;2023-01-30T10:56:49;1.90;67.90
72206;DHT22;60111;48.286;7.812;2023-01-30T10:59:23;1.90;68.10
72206;DHT22;60111;48.286;7.812;2023-01-30T11:04:49;2.00;68.10
72206;DHT22;60111;48.286;7.812;2023-01-30T11:07:17;2.00;67.80
72206;DHT22;60111;48.286;7.812;2023-01-30T11:09:50;2.10;68.00
72206;DHT22;60111;48.286;7.812;2023-01-30T11:12:23;2.10;67.30
72206;DHT22;60111;48.286;7.812;2023-01-30T11:15:00;2.10;67.90
72206;DHT22;60111;48.286;7.812;2023-01-30T11:17:36;2.20;67.70
72206;DHT22;60111;48.286;7.812;2023-01-30T11:20:14;2.20;67.50
72206;DHT22;60111;48.286;7.812;2023-01-30T11:22:49;2.40;67.20
72206;DHT22;60111;48.286;7.812;2023-01-30T11:25:22;2.40;67.00
72206;DHT22;60111;48.286;7.812;2023-01-30T11:28:00;2.40;66.70
72206;DHT22;60111;48.286;7.812;2023-01-30T11:30:35;2.50;66.60
72206;DHT22;60111;48.286;7.812;2023-01-30T11:33:13;2.50;66.60
72206;DHT22;60111;48.286;7.812;2023-01-30T11:35:59;2.60;66.00
72206;DHT22;60111;48.286;7.812;2023-01-30T11:38:38;2.60;66.20
72206;DHT22;60111;48.286;7.812;2023-01-30T11:41:17;2.70;66.40
72206;DHT22;60111;48.286;7.812;2023-01-30T11:43:50;2.80;65.80
72206;DHT22;60111;48.286;7.812;2023-01-30T11:46:26;2.90;65.50
72206;DHT22;60111;48.286;7.812;2023-01-30T11:49:13;2.80;65.90
72206;DHT22;60111;48.286;7.812;2023-01-30T11:51:39;2.90;65.40
72206;DHT22;60111;48.286;7.812;2023-01-30T11:54:17;2.90;65.20
72206;DHT22;60111;48.286;7.812;2023-01-30T11:56:55;2.90;65.00
72206;DHT22;60111;48.286;7.812;2023-01-30T12:00:00;2.90;65.40
72206;DHT22;60111;48.286;7.812;2023-01-30T12:02:33;2.90;64.90
72206;DHT22;60111;48.286;7.812;2023-01-30T12:05:15;2.90;65.30
72206;DHT22;60111;48.286;7.812;2023-01-30T12:07:40;3.00;65.50
72206;DHT22;60111;48.286;7.812;2023-01-30T12:10:30;3.00;65.40
72206;DHT22;60111;48.286;7.812;2023-01-30T12:13:05;3.10;65.40
72206;DHT22;60111;48.286;7.812;2023-01-30T12:15:37;3.10;65.50
72206;DHT22;60111;48.286;7.812;2023-01-30T12:18:31;3.00;65.70
72206;DHT22;60111;48.286;7.812;2023-01-30T12:21:37;3.10;65.50
72206;DHT22;60111;48.286;7.812;2023-01-30T12:24:21;3.10;65.90
72206;DHT22;60111;48.286;7.812;2023-01-30T12:27:00;3.10;66.00
72206;DHT22;60111;48.286;7.812;2023-01-30T12:29:40;3.10;66.20
72206;DHT22;60111;48.286;7.812;2023-01-30T12:32:16;3.10;66.10
72206;DHT22;60111;48.286;7.812;2023-01-30T12:34:50;3.10;66.30
72206;DHT22;60111;48.286;7.812;2023-01-30T12:40:30;3.10;66.90
72206;DHT22;60111;48.286;7.812;2023-01-30T12:43:24;3.00;66.70
72206;DHT22;60111;48.286;7.812;2023-01-30T12:46:36;3.00;67.10
72206;DHT22;60111;48.286;7.812;2023-01-30T12:52:31;3.00;66.60
72206;DHT22;60111;48.286;7.812;2023-01-30T12:57:59;3.00;66.20
72206;DHT22;60111;48.286;7.812;2023-01-30T13:00:44;3.10;66.70
72206;DHT22;60111;48.286;7.812;2023-01-30T13:03:42;3.10;66.70
72206;DHT22;60111;48.286;7.812;2023-01-30T13:06:25;3.10;66.20
72206;DHT22;60111;48.286;7.812;2023-01-30T13:12:11;3.10;67.10
72206;DHT22;60111;48.286;7.812;2023-01-30T13:14:51;3.10;67.20
72206;DHT22;60111;48.286;7.812;2023-01-30T13:23:13;3.00;68.90
72206;DHT22;60111;48.286;7.812;2023-01-30T13:25:58;3.00;69.90
72206;DHT22;60111;48.286;7.812;2023-01-30T13:28:50;2.90;70.60
72206;DHT22;60111;48.286;7.812;2023-01-30T13:31:25;3.00;70.60
72206;DHT22;60111;48.286;7.812;2023-01-30T13:36:48;2.90;70.90
72206;DHT22;60111;48.286;7.812;2023-01-30T13:39:37;3.00;71.00
72206;DHT22;60111;48.286;7.812;2023-01-30T13:43:05;3.00;71.50
72206;DHT22;60111;48.286;7.812;2023-01-30T13:44:50;3.00;71.60
72206;DHT22;60111;48.286;7.812;2023-01-30T13:50:37;3.00;71.90
72206;DHT22;60111;48.286;7.812;2023-01-30T13:53:15;3.10;71.70
72206;DHT22;60111;48.286;7.812;2023-01-30T13:56:16;3.10;71.60
72206;DHT22;60111;48.286;7.812;2023-01-30T14:10:18;3.20;71.60
72206;DHT22;60111;48.286;7.812;2023-01-30T14:12:49;3.20;71.30
72206;DHT22;60111;48.286;7.812;2023-01-30T14:15:25;3.10;71.70
72206;DHT22;60111;48.286;7.812;2023-01-30T14:18:05;3.10;71.80
72206;DHT22;60111;48.286;7.812;2023-01-30T14:20:46;3.20;71.40
72206;DHT22;60111;48.286;7.812;2023-01-30T14:23:26;3.20;71.50
72206;DHT22;60111;48.286;7.812;2023-01-30T14:25:57;3.20;71.20
72206;DHT22;60111;48.286;7.812;2023-01-30T14:31:06;3.20;71.80
72206;DHT22;60111;48.286;7.812;2023-01-30T14:33:50;3.20;71.30
72206;DHT22;60111;48.286;7.812;2023-01-30T14:42:19;3.40;71.20
72206;DHT22;60111;48.286;7.812;2023-01-30T14:45:15;3.30;70.80
72206;DHT22;60111;48.286;7.812;2023-01-30T14:47:47;3.30;71.30
72206;DHT22;60111;48.286;7.812;2023-01-30T14:50:22;3.40;71.20
72206;DHT22;60111;48.286;7.812;2023-01-30T14:52:56;3.40;71.50
72206;DHT22;60111;48.286;7.812;2023-01-30T14:55:28;3.40;71.00
72206;DHT22;60111;48.286;7.812;2023-01-30T14:58:02;3.50;70.80
72206;DHT22;60111;48.286;7.812;2023-01-30T15:00:37;3.50;70.50
72206;DHT22;60111;48.286;7.812;2023-01-30T15:03:16;3.40;70.60
72206;DHT22;60111;48.286;7.812;2023-01-30T15:05:49;3.50;70.60
72206;DHT22;60111;48.286;7.812;2023-01-30T15:08:24;3.50;70.40
72206;DHT22;60111;48.286;7.812;2023-01-30T15:16:54;3.50;70.80
72206;DHT22;60111;48.286;7.812;2023-01-30T15:25:26;3.40;71.40
72206;DHT22;60111;48.286;7.812;2023-01-30T15:28:09;3.50;71.10
72206;DHT22;60111;48.286;7.812;2023-01-30T15:30:50;3.40;71.20
72206;DHT22;60111;48.286;7.812;2023-01-30T15:33:21;3.50;71.20
72206;DHT22;60111;48.286;7.812;2023-01-30T15:35:54;3.50;70.90
72206;DHT22;60111;48.286;7.812;2023-01-30T15:38:31;3.50;70.90
72206;DHT22;60111;48.286;7.812;2023-01-30T15:41:05;3.50;71.60
72206;DHT22;60111;48.286;7.812;2023-01-30T15:43:47;3.60;71.20
72206;DHT22;60111;48.286;7.812;2023-01-30T15:46:35;3.50;71.70
72206;DHT22;60111;48.286;7.812;2023-01-30T15:49:35;3.50;71.80
72206;DHT22;60111;48.286;7.812;2023-01-30T15:51:53;3.50;72.10
72206;DHT22;60111;48.286;7.812;2023-01-30T15:54:27;3.50;72.00
72206;DHT22;60111;48.286;7.812;2023-01-30T15:57:00;3.50;72.20
72206;DHT22;60111;48.286;7.812;2023-01-30T15:59:35;3.50;72.70
72206;DHT22;60111;48.286;7.812;2023-01-30T16:02:27;3.50;72.60
72206;DHT22;60111;48.286;7.812;2023-01-30T16:05:15;3.50;72.60
72206;DHT22;60111;48.286;7.812;2023-01-30T16:07:49;3.50;73.00
72206;DHT22;60111;48.286;7.812;2023-01-30T16:10:25;3.40;73.70
72206;DHT22;60111;48.286;7.812;2023-01-30T16:13:01;3.40;74.20
72206;DHT22;60111;48.286;7.812;2023-01-30T16:18:52;3.40;73.60
72206;DHT22;60111;48.286;7.812;2023-01-30T16:21:29;3.30;74.10
72206;DHT22;60111;48.286;7.812;2023-01-30T16:24:16;3.40;74.10
72206;DHT22;60111;48.286;7.812;2023-01-30T16:26:42;3.30;74.30
72206;DHT22;60111;48.286;7.812;2023-01-30T16:29:18;3.20;74.70
72206;DHT22;60111;48.286;7.812;2023-01-30T16:31:52;3.20;74.90
72206;DHT22;60111;48.286;7.812;2023-01-30T16:34:34;3.20;75.10
72206;DHT22;60111;48.286;7.812;2023-01-30T16:46:02;3.30;75.50
72206;DHT22;60111;48.286;7.812;2023-01-30T16:48:31;3.20;75.40
72206;DHT22;60111;48.286;7.812;2023-01-30T16:51:13;3.20;75.70
72206;DHT22;60111;48.286;7.812;2023-01-30T16:53:50;3.20;75.70
72206;DHT22;60111;48.286;7.812;2023-01-30T16:56:20;3.10;75.70
72206;DHT22;60111;48.286;7.812;2023-01-30T16:58:56;3.20;75.50
72206;DHT22;60111;48.286;7.812;2023-01-30T17:01:38;3.20;75.70
72206;DHT22;60111;48.286;7.812;2023-01-30T17:04:20;3.10;75.90
72206;DHT22;60111;48.286;7.812;2023-01-30T17:06:59;3.20;75.70
72206;DHT22;60111;48.286;7.812;2023-01-30T17:17:44;3.20;75.60
72206;DHT22;60111;48.286;7.812;2023-01-30T17:20:17;3.20;75.50
72206;DHT22;60111;48.286;7.812;2023-01-30T17:22:50;3.20;75.50
72206;DHT22;60111;48.286;7.812;2023-01-30T17:25:28;3.20;75.80
72206;DHT22;60111;48.286;7.812;2023-01-30T17:27:59;3.30;75.60
72206;DHT22;60111;48.286;7.812;2023-01-30T17:30:33;3.20;75.40
72206;DHT22;60111;48.286;7.812;2023-01-30T17:33:06;3.30;75.50
72206;DHT22;60111;48.286;7.812;2023-01-30T17:35:38;3.30;75.20
72206;DHT22;60111;48.286;7.812;2023-01-30T17:38:11;3.30;75.20
72206;DHT22;60111;48.286;7.812;2023-01-30T17:40:44;3.20;75.50
72206;DHT22;60111;48.286;7.812;2023-01-30T17:43:16;3.30;75.20
72206;DHT22;60111;48.286;7.812;2023-01-30T17:45:49;3.20;75.40
72206;DHT22;60111;48.286;7.812;2023-01-30T17:48:22;3.20;75.40
72206;DHT22;60111;48.286;7.812;2023-01-30T17:50:55;3.20;75.40
72206;DHT22;60111;48.286;7.812;2023-01-30T17:53:27;3.10;75.80
72206;DHT22;60111;48.286;7.812;2023-01-30T17:56:00;3.10;76.00
72206;DHT22;60111;48.286;7.812;2023-01-30T17:58:32;3.10;76.10
72206;DHT22;60111;48.286;7.812;2023-01-30T18:01:05;3.20;75.80
72206;DHT22;60111;48.286;7.812;2023-01-30T18:03:38;3.20;75.50
72206;DHT22;60111;48.286;7.812;2023-01-30T18:06:14;3.20;75.40
72206;DHT22;60111;48.286;7.812;2023-01-30T18:08:47;3.30;75.10
72206;DHT22;60111;48.286;7.812;2023-01-30T18:11:19;3.20;75.20
72206;DHT22;60111;48.286;7.812;2023-01-30T18:13:52;3.20;75.60
72206;DHT22;60111;48.286;7.812;2023-01-30T18:16:28;3.20;75.50
72206;DHT22;60111;48.286;7.812;2023-01-30T18:19:07;3.10;75.70
72206;DHT22;60111;48.286;7.812;2023-01-30T18:21:40;3.20;75.70
72206;DHT22;60111;48.286;7.812;2023-01-30T18:24:16;3.20;75.60
72206;DHT22;60111;48.286;7.812;2023-01-30T18:26:48;3.20;75.60
72206;DHT22;60111;48.286;7.812;2023-01-30T18:29:21;3.20;75.40
72206;DHT22;60111;48.286;7.812;2023-01-30T18:31:54;3.20;75.50